createdAt,value
2019-03-30T00:00:02.071Z,1021.72
2019-03-30T00:01:02.014Z,1021.69
2019-03-30T00:02:01.974Z,1021.78
2019-03-30T00:03:01.970Z,1021.69
2019-03-30T00:04:01.957Z,1021.68
2019-03-30T00:05:01.948Z,1021.67
2019-03-30T00:06:01.949Z,1021.76
2019-03-30T00:07:01.929Z,1021.73
2019-03-30T00:08:01.917Z,1021.67
2019-03-30T00:09:01.895Z,1021.60
2019-03-30T00:10:01.897Z,1021.58
2019-03-30T00:11:01.922Z,1021.74
2019-03-30T00:12:01.866Z,1021.69
2019-03-30T00:13:01.869Z,1021.51
2019-03-30T00:14:01.839Z,1021.61
2019-03-30T00:15:01.831Z,1021.57
2019-03-30T00:16:01.896Z,1021.54
2019-03-30T00:17:01.811Z,1021.60
2019-03-30T00:18:01.803Z,1021.52
2019-03-30T00:19:01.802Z,1021.58
2019-03-30T00:20:01.772Z,1021.68
2019-03-30T00:21:01.781Z,1021.66
2019-03-30T00:22:01.768Z,1021.58
2019-03-30T00:23:01.734Z,1021.69
2019-03-30T00:24:01.746Z,1021.62
2019-03-30T00:25:02.383Z,1021.53
2019-03-30T00:26:01.749Z,1021.51
2019-03-30T00:27:01.693Z,1021.51
2019-03-30T00:28:01.689Z,1021.47
2019-03-30T00:29:01.693Z,1021.48
2019-03-30T00:30:01.671Z,1021.46
2019-03-30T00:31:01.680Z,1021.60
2019-03-30T00:32:01.648Z,1021.53
2019-03-30T00:33:01.630Z,1021.58
2019-03-30T00:34:01.632Z,1021.57
2019-03-30T00:35:01.619Z,1021.50
2019-03-30T00:36:01.664Z,1021.46
2019-03-30T00:37:01.596Z,1021.54
2019-03-30T00:38:01.580Z,1021.51
2019-03-30T00:39:01.578Z,1021.44
2019-03-30T00:40:01.555Z,1021.39
2019-03-30T00:41:01.565Z,1021.48
2019-03-30T00:42:01.549Z,1021.47
2019-03-30T00:43:01.522Z,1021.39
2019-03-30T00:44:01.509Z,1021.39
2019-03-30T00:45:01.517Z,1021.33
2019-03-30T00:46:01.549Z,1021.46
2019-03-30T00:47:01.482Z,1021.34
2019-03-30T00:48:01.511Z,1021.27
2019-03-30T00:49:01.451Z,1021.42
2019-03-30T00:50:01.453Z,1021.37
2019-03-30T00:51:01.469Z,1021.29
2019-03-30T00:52:01.432Z,1021.29
2019-03-30T00:53:01.413Z,1021.24
2019-03-30T00:54:01.410Z,1021.29
2019-03-30T00:55:01.396Z,1021.30
2019-03-30T00:56:01.392Z,1021.24
2019-03-30T00:57:01.399Z,1021.30
2019-03-30T00:58:01.368Z,1021.26
2019-03-30T00:59:01.345Z,1021.30
2019-03-30T01:00:01.340Z,1021.39
2019-03-30T01:01:01.317Z,1021.30
2019-03-30T01:02:01.325Z,1021.29
2019-03-30T01:03:01.314Z,1021.38
2019-03-30T01:04:01.298Z,1021.22
2019-03-30T01:05:01.280Z,1021.21
2019-03-30T01:06:01.275Z,1021.25
2019-03-30T01:07:01.289Z,1021.23
2019-03-30T01:08:01.244Z,1021.23
2019-03-30T01:09:01.241Z,1021.19
2019-03-30T01:10:01.225Z,1021.23
2019-03-30T01:11:01.212Z,1021.15
2019-03-30T01:12:01.216Z,1021.16
2019-03-30T01:13:01.195Z,1021.17
2019-03-30T01:14:01.189Z,1021.22
2019-03-30T01:15:01.181Z,1021.17
2019-03-30T01:16:01.158Z,1021.27
2019-03-30T01:17:01.156Z,1021.14
2019-03-30T01:18:01.134Z,1021.15
2019-03-30T01:19:01.130Z,1021.09
2019-03-30T01:20:03.015Z,1021.10
2019-03-30T01:21:01.112Z,1021.17
2019-03-30T01:22:01.084Z,1021.16
2019-03-30T01:23:01.095Z,1021.12
2019-03-30T01:24:01.074Z,1021.25
2019-03-30T01:25:01.058Z,1021.28
2019-03-30T01:26:01.048Z,1021.16
2019-03-30T01:27:01.032Z,1021.20
2019-03-30T01:28:01.042Z,1021.17
2019-03-30T01:29:01.017Z,1021.15
2019-03-30T01:30:01.008Z,1021.20
2019-03-30T01:31:00.993Z,1021.27
2019-03-30T01:32:00.978Z,1021.27
2019-03-30T01:33:00.981Z,1021.17
2019-03-30T01:34:00.955Z,1021.12
2019-03-30T01:35:00.974Z,1021.15
2019-03-30T01:36:00.943Z,1021.14
2019-03-30T01:37:00.922Z,1021.10
2019-03-30T01:38:00.933Z,1021.10
2019-03-30T01:39:00.901Z,1021.15
2019-03-30T01:40:00.891Z,1021.07
2019-03-30T01:41:00.880Z,1021.10
2019-03-30T01:42:00.890Z,1021.15
2019-03-30T01:43:00.869Z,1021.17
2019-03-30T01:44:00.844Z,1021.21
2019-03-30T01:45:00.825Z,1021.10
2019-03-30T01:46:00.829Z,1021.13
2019-03-30T01:47:00.832Z,1021.04
2019-03-30T01:48:00.840Z,1021.07
2019-03-30T01:49:00.802Z,1021.18
2019-03-30T01:50:00.781Z,1021.16
2019-03-30T01:51:00.769Z,1021.11
2019-03-30T01:52:00.760Z,1021.06
2019-03-30T01:53:00.768Z,1021.04
2019-03-30T01:54:00.735Z,1021.04
2019-03-30T01:55:00.741Z,1021.02
2019-03-30T01:56:00.716Z,1021.09
2019-03-30T01:57:00.718Z,1021.13
2019-03-30T01:58:00.716Z,1021.16
2019-03-30T01:59:00.703Z,1021.16
2019-03-30T02:00:00.676Z,1021.16
2019-03-30T02:01:00.658Z,1021.04
2019-03-30T02:02:00.654Z,1021.03
2019-03-30T02:03:00.653Z,1021.02
2019-03-30T02:04:00.643Z,1021.16
2019-03-30T02:05:00.620Z,1021.05
2019-03-30T02:06:00.612Z,1021.02
2019-03-30T02:07:00.584Z,1021.16
2019-03-30T02:08:00.616Z,1020.98
2019-03-30T02:09:00.574Z,1021.09
2019-03-30T02:10:00.586Z,1021.14
2019-03-30T02:11:00.551Z,1021.16
2019-03-30T02:12:00.531Z,1021.11
2019-03-30T02:13:00.550Z,1020.98
2019-03-30T02:14:00.572Z,1021.08
2019-03-30T02:15:00.497Z,1020.96
2019-03-30T02:16:00.498Z,1020.94
2019-03-30T02:17:00.477Z,1020.99
2019-03-30T02:18:00.473Z,1021.02
2019-03-30T02:19:00.473Z,1020.98
2019-03-30T02:20:00.461Z,1020.90
2019-03-30T02:21:00.450Z,1020.95
2019-03-30T02:22:00.424Z,1020.92
2019-03-30T02:23:00.419Z,1020.98
2019-03-30T02:24:00.421Z,1020.90
2019-03-30T02:25:00.392Z,1020.91
2019-03-30T02:26:00.388Z,1021.09
2019-03-30T02:27:00.381Z,1020.93
2019-03-30T02:28:00.362Z,1020.95
2019-03-30T02:29:00.386Z,1020.88
2019-03-30T02:30:00.501Z,1021.05
2019-03-30T02:31:00.340Z,1021.02
2019-03-30T02:32:00.310Z,1020.96
2019-03-30T02:33:00.317Z,1020.96
2019-03-30T02:34:00.457Z,1020.92
2019-03-30T02:35:00.448Z,1020.96
2019-03-30T02:36:00.266Z,1020.83
2019-03-30T02:37:00.268Z,1020.80
2019-03-30T02:38:00.261Z,1020.80
2019-03-30T02:39:00.281Z,1020.86
2019-03-30T02:40:00.552Z,1020.87
2019-03-30T02:41:00.218Z,1020.80
2019-03-30T02:42:00.218Z,1020.82
2019-03-30T02:43:00.206Z,1020.79
2019-03-30T02:44:00.232Z,1020.80
2019-03-30T02:45:00.510Z,1020.78
2019-03-30T02:46:00.156Z,1020.82
2019-03-30T02:47:00.153Z,1020.85
2019-03-30T02:48:00.134Z,1020.88
2019-03-30T02:49:00.143Z,1020.92
2019-03-30T02:50:00.469Z,1020.77
2019-03-30T02:51:00.098Z,1020.84
2019-03-30T02:52:00.106Z,1020.88
2019-03-30T02:53:00.087Z,1020.89
2019-03-30T02:54:00.079Z,1020.72
2019-03-30T02:55:00.091Z,1020.77
2019-03-30T02:56:00.053Z,1020.78
2019-03-30T02:57:00.052Z,1020.71
2019-03-30T02:58:00.035Z,1020.72
2019-03-30T02:59:00.032Z,1020.73
2019-03-30T03:00:00.035Z,1020.69
2019-03-30T03:01:00.015Z,1020.75
2019-03-30T03:01:59.996Z,1020.77
2019-03-30T03:02:59.984Z,1020.74
2019-03-30T03:03:59.959Z,1020.72
2019-03-30T03:04:59.973Z,1020.67
2019-03-30T03:05:59.936Z,1020.73
2019-03-30T03:06:59.927Z,1020.79
2019-03-30T03:07:59.929Z,1020.81
2019-03-30T03:08:59.926Z,1020.59
2019-03-30T03:09:59.940Z,1020.68
2019-03-30T03:10:59.886Z,1020.67
2019-03-30T03:11:59.882Z,1020.61
2019-03-30T03:12:59.868Z,1020.77
2019-03-30T03:13:59.859Z,1020.71
2019-03-30T03:14:59.901Z,1020.79
2019-03-30T03:15:59.841Z,1020.66
2019-03-30T03:16:59.815Z,1020.57
2019-03-30T03:17:59.835Z,1020.61
2019-03-30T03:18:59.797Z,1020.54
2019-03-30T03:19:59.805Z,1020.49
2019-03-30T03:21:07.591Z,1020.52
2019-03-30T03:22:00.773Z,1020.54
2019-03-30T03:22:59.769Z,1020.59
2019-03-30T03:23:59.765Z,1020.60
2019-03-30T03:24:59.745Z,1020.52
2019-03-30T03:25:59.764Z,1020.51
2019-03-30T03:26:59.716Z,1020.53
2019-03-30T03:27:59.706Z,1020.43
2019-03-30T03:28:59.689Z,1020.36
2019-03-30T03:29:59.712Z,1020.41
2019-03-30T03:30:59.670Z,1020.37
2019-03-30T03:31:59.655Z,1020.34
2019-03-30T03:32:59.657Z,1020.41
2019-03-30T03:33:59.642Z,1020.33
2019-03-30T03:34:59.648Z,1020.46
2019-03-30T03:35:59.651Z,1020.47
2019-03-30T03:36:59.593Z,1020.36
2019-03-30T03:37:59.606Z,1020.37
2019-03-30T03:38:59.588Z,1020.35
2019-03-30T03:39:59.579Z,1020.38
2019-03-30T03:40:59.574Z,1020.34
2019-03-30T03:41:59.544Z,1020.34
2019-03-30T03:42:59.534Z,1020.33
2019-03-30T03:43:59.525Z,1020.29
2019-03-30T03:44:59.513Z,1020.29
2019-03-30T03:45:59.554Z,1020.33
2019-03-30T03:46:59.490Z,1020.44
2019-03-30T03:47:59.486Z,1020.26
2019-03-30T03:48:59.464Z,1020.30
2019-03-30T03:49:59.447Z,1020.27
2019-03-30T03:50:59.462Z,1020.20
2019-03-30T03:51:59.451Z,1020.24
2019-03-30T03:52:59.416Z,1020.40
2019-03-30T03:53:59.415Z,1020.38
2019-03-30T03:54:59.399Z,1020.40
2019-03-30T03:55:59.407Z,1020.36
2019-03-30T03:56:59.379Z,1020.29
2019-03-30T03:57:59.359Z,1020.24
2019-03-30T03:58:59.354Z,1020.31
2019-03-30T03:59:59.369Z,1020.21
2019-03-30T04:00:59.345Z,1020.27
2019-03-30T04:01:59.335Z,1020.26
2019-03-30T04:02:59.311Z,1020.22
2019-03-30T04:03:59.298Z,1020.21
2019-03-30T04:04:59.283Z,1020.22
2019-03-30T04:05:59.311Z,1020.23
2019-03-30T04:06:59.272Z,1020.21
2019-03-30T04:07:59.286Z,1020.15
2019-03-30T04:08:59.241Z,1020.28
2019-03-30T04:09:59.240Z,1020.15
2019-03-30T04:10:59.215Z,1020.22
2019-03-30T04:11:59.228Z,1020.32
2019-03-30T04:12:59.197Z,1020.25
2019-03-30T04:13:59.275Z,1020.24
2019-03-30T04:14:59.181Z,1020.25
2019-03-30T04:15:59.170Z,1020.22
2019-03-30T04:16:59.162Z,1020.23
2019-03-30T04:17:59.144Z,1020.21
2019-03-30T04:18:59.140Z,1020.18
2019-03-30T04:19:59.132Z,1020.18
2019-03-30T04:20:59.106Z,1020.19
2019-03-30T04:21:59.176Z,1020.31
2019-03-30T04:22:59.110Z,1020.35
2019-03-30T04:23:59.088Z,1020.33
2019-03-30T04:24:59.066Z,1020.33
2019-03-30T04:25:59.058Z,1020.23
2019-03-30T04:26:59.052Z,1020.27
2019-03-30T04:27:59.033Z,1020.27
2019-03-30T04:28:59.016Z,1020.38
2019-03-30T04:29:59.018Z,1020.16
2019-03-30T04:30:59.011Z,1020.18
2019-03-30T04:31:59.052Z,1020.15
2019-03-30T04:32:59.002Z,1020.26
2019-03-30T04:33:58.979Z,1020.26
2019-03-30T04:34:58.969Z,1020.06
2019-03-30T04:35:58.951Z,1020.14
2019-03-30T04:36:58.951Z,1020.20
2019-03-30T04:37:58.919Z,1020.10
2019-03-30T04:38:58.926Z,1020.14
2019-03-30T04:39:58.901Z,1020.13
2019-03-30T04:40:58.885Z,1020.25
2019-03-30T04:41:58.900Z,1020.11
2019-03-30T04:42:58.869Z,1020.05
2019-03-30T04:43:58.862Z,1020.07
2019-03-30T04:44:58.843Z,1020.02
2019-03-30T04:45:58.852Z,1020.21
2019-03-30T04:46:58.845Z,1020.14
2019-03-30T04:47:58.836Z,1020.13
2019-03-30T04:48:58.805Z,1020.00
2019-03-30T04:49:58.790Z,1020.05
2019-03-30T04:50:58.786Z,1020.10
2019-03-30T04:51:58.802Z,1020.04
2019-03-30T04:52:58.815Z,1020.10
2019-03-30T04:53:58.758Z,1020.01
2019-03-30T04:54:58.738Z,1020.05
2019-03-30T04:55:58.727Z,1020.09
2019-03-30T04:56:58.757Z,1020.01
2019-03-30T04:57:58.697Z,1019.97
2019-03-30T04:58:58.701Z,1020.04
2019-03-30T04:59:58.691Z,1020.05
2019-03-30T05:00:58.670Z,1020.09
2019-03-30T05:01:58.675Z,1020.12
2019-03-30T05:02:58.686Z,1020.07
2019-03-30T05:03:58.647Z,1020.10
2019-03-30T05:04:58.623Z,1019.96
2019-03-30T05:05:58.626Z,1019.96
2019-03-30T05:06:58.608Z,1020.05
2019-03-30T05:07:58.611Z,1019.98
2019-03-30T05:08:58.586Z,1019.96
2019-03-30T05:09:58.575Z,1019.95
2019-03-30T05:10:58.568Z,1020.03
2019-03-30T05:11:58.558Z,1019.96
2019-03-30T05:12:58.559Z,1019.95
2019-03-30T05:13:58.538Z,1019.97
2019-03-30T05:14:58.532Z,1020.00
2019-03-30T05:15:58.501Z,1020.02
2019-03-30T05:16:58.521Z,1019.97
2019-03-30T05:17:58.531Z,1019.98
2019-03-30T05:18:58.480Z,1019.99
2019-03-30T05:19:58.460Z,1019.93
2019-03-30T05:20:58.450Z,1019.91
2019-03-30T05:22:11.428Z,1019.90
2019-03-30T05:22:59.474Z,1019.84
2019-03-30T05:23:58.450Z,1019.89
2019-03-30T05:24:58.415Z,1019.86
2019-03-30T05:25:58.393Z,1019.89
2019-03-30T05:26:58.396Z,1019.81
2019-03-30T05:27:58.381Z,1020.00
2019-03-30T05:28:58.390Z,1020.01
2019-03-30T05:29:58.362Z,1020.00
2019-03-30T05:30:58.351Z,1019.82
2019-03-30T05:31:58.336Z,1019.85
2019-03-30T05:33:05.435Z,1019.85
2019-03-30T05:33:59.319Z,1020.01
2019-03-30T05:34:58.307Z,1019.92
2019-03-30T05:35:58.333Z,1019.90
2019-03-30T05:36:58.276Z,1019.81
2019-03-30T05:38:01.294Z,1019.84
2019-03-30T05:38:58.290Z,1019.89
2019-03-30T05:39:58.252Z,1019.87
2019-03-30T05:40:58.239Z,1019.87
2019-03-30T05:41:58.216Z,1019.89
2019-03-30T05:42:58.215Z,1019.86
2019-03-30T05:43:58.190Z,1019.80
2019-03-30T05:44:58.239Z,1019.88
2019-03-30T05:45:58.183Z,1019.85
2019-03-30T05:46:58.161Z,1019.86
2019-03-30T05:47:58.153Z,1019.83
2019-03-30T05:48:58.154Z,1019.85
2019-03-30T05:49:58.152Z,1019.87
2019-03-30T05:50:58.139Z,1019.84
2019-03-30T05:51:58.138Z,1019.84
2019-03-30T05:52:58.103Z,1019.90
2019-03-30T05:53:58.081Z,1019.90
2019-03-30T05:54:58.104Z,1019.96
2019-03-30T05:55:58.067Z,1019.94
2019-03-30T05:56:58.053Z,1019.89
2019-03-30T05:57:58.062Z,1019.87
2019-03-30T05:58:58.042Z,1019.82
2019-03-30T05:59:58.068Z,1019.78
2019-03-30T06:00:58.027Z,1019.82
2019-03-30T06:01:58.006Z,1019.79
2019-03-30T06:02:57.984Z,1019.83
2019-03-30T06:03:57.977Z,1019.78
2019-03-30T06:04:58.659Z,1019.80
2019-03-30T06:05:57.970Z,1019.83
2019-03-30T06:06:57.941Z,1019.77
2019-03-30T06:07:57.937Z,1019.77
2019-03-30T06:08:57.943Z,1019.83
2019-03-30T06:09:57.910Z,1019.89
2019-03-30T06:10:57.923Z,1019.74
2019-03-30T06:11:57.885Z,1019.73
2019-03-30T06:12:57.887Z,1019.79
2019-03-30T06:13:57.878Z,1019.86
2019-03-30T06:14:57.853Z,1019.87
2019-03-30T06:15:57.873Z,1019.89
2019-03-30T06:16:57.859Z,1019.66
2019-03-30T06:17:57.814Z,1019.74
2019-03-30T06:18:57.819Z,1019.75
2019-03-30T06:19:57.821Z,1019.75
2019-03-30T06:20:57.810Z,1019.76
2019-03-30T06:21:57.783Z,1019.81
2019-03-30T06:22:57.763Z,1019.84
2019-03-30T06:23:57.751Z,1019.74
2019-03-30T06:24:57.745Z,1019.69
2019-03-30T06:25:57.728Z,1019.72
2019-03-30T06:26:57.742Z,1019.73
2019-03-30T06:27:57.709Z,1019.69
2019-03-30T06:28:57.735Z,1019.65
2019-03-30T06:29:57.685Z,1019.69
2019-03-30T06:30:57.699Z,1019.75
2019-03-30T06:31:57.673Z,1019.71
2019-03-30T06:32:57.642Z,1019.67
2019-03-30T06:33:57.668Z,1019.69
2019-03-30T06:34:57.635Z,1019.63
2019-03-30T06:35:57.649Z,1019.79
2019-03-30T06:36:57.625Z,1019.79
2019-03-30T06:37:57.602Z,1019.68
2019-03-30T06:38:57.591Z,1019.66
2019-03-30T06:39:57.579Z,1019.61
2019-03-30T06:40:57.567Z,1019.62
2019-03-30T06:41:57.566Z,1019.60
2019-03-30T06:42:57.553Z,1019.61
2019-03-30T06:43:57.539Z,1019.57
2019-03-30T06:44:57.534Z,1019.57
2019-03-30T06:45:57.510Z,1019.71
2019-03-30T06:46:57.576Z,1019.59
2019-03-30T06:47:57.500Z,1019.50
2019-03-30T06:48:57.487Z,1019.56
2019-03-30T06:49:57.458Z,1019.51
2019-03-30T06:50:57.465Z,1019.53
2019-03-30T06:51:57.451Z,1019.53
2019-03-30T06:52:58.749Z,1019.61
2019-03-30T06:53:57.434Z,1019.48
2019-03-30T06:54:57.421Z,1019.47
2019-03-30T06:55:57.396Z,1019.49
2019-03-30T06:56:57.398Z,1019.52
2019-03-30T06:57:57.395Z,1019.57
2019-03-30T06:58:57.364Z,1019.50
2019-03-30T06:59:57.382Z,1019.58
2019-03-30T07:00:57.347Z,1019.47
2019-03-30T07:01:57.406Z,1019.50
2019-03-30T07:02:57.347Z,1019.48
2019-03-30T07:03:57.320Z,1019.40
2019-03-30T07:04:57.320Z,1019.47
2019-03-30T07:05:57.300Z,1019.49
2019-03-30T07:06:57.279Z,1019.38
2019-03-30T07:07:57.293Z,1019.57
2019-03-30T07:08:57.274Z,1019.45
2019-03-30T07:09:57.243Z,1019.42
2019-03-30T07:10:57.243Z,1019.36
2019-03-30T07:11:57.247Z,1019.36
2019-03-30T07:12:57.246Z,1019.36
2019-03-30T07:13:57.201Z,1019.39
2019-03-30T07:14:57.187Z,1019.35
2019-03-30T07:15:57.196Z,1019.32
2019-03-30T07:16:57.174Z,1019.34
2019-03-30T07:17:57.172Z,1019.42
2019-03-30T07:18:57.161Z,1019.41
2019-03-30T07:19:57.137Z,1019.46
2019-03-30T07:20:57.121Z,1019.49
2019-03-30T07:21:57.118Z,1019.41
2019-03-30T07:23:10.668Z,1019.50
2019-03-30T07:23:58.086Z,1019.57
2019-03-30T07:24:57.079Z,1019.50
2019-03-30T07:25:57.057Z,1019.40
2019-03-30T07:26:57.063Z,1019.40
2019-03-30T07:27:57.065Z,1019.37
2019-03-30T07:28:57.053Z,1019.44
2019-03-30T07:29:57.021Z,1019.41
2019-03-30T07:30:57.050Z,1019.40
2019-03-30T07:31:56.997Z,1019.40
2019-03-30T07:32:57.077Z,1019.48
2019-03-30T07:33:56.983Z,1019.43
2019-03-30T07:34:56.972Z,1019.49
2019-03-30T07:35:56.957Z,1019.40
2019-03-30T07:36:56.946Z,1019.46
2019-03-30T07:37:56.952Z,1019.52
2019-03-30T07:38:56.926Z,1019.51
2019-03-30T07:39:56.909Z,1019.51
2019-03-30T07:40:56.904Z,1019.47
2019-03-30T07:41:56.903Z,1019.44
2019-03-30T07:42:56.909Z,1019.47
2019-03-30T07:43:56.864Z,1019.44
2019-03-30T07:44:56.863Z,1019.42
2019-03-30T07:45:56.852Z,1019.49
2019-03-30T07:46:56.841Z,1019.45
2019-03-30T07:47:56.878Z,1019.51
2019-03-30T07:48:56.805Z,1019.63
2019-03-30T07:49:56.812Z,1019.60
2019-03-30T07:50:56.798Z,1019.45
2019-03-30T07:51:56.800Z,1019.37
2019-03-30T07:52:56.771Z,1019.42
2019-03-30T07:53:56.797Z,1019.46
2019-03-30T07:54:56.746Z,1019.40
2019-03-30T07:56:07.655Z,1019.42
2019-03-30T07:57:04.989Z,1019.53
2019-03-30T07:57:57.720Z,1019.52
2019-03-30T07:58:56.713Z,1019.50
2019-03-30T07:59:56.707Z,1019.48
2019-03-30T08:00:56.703Z,1019.32
2019-03-30T08:01:56.664Z,1019.38
2019-03-30T08:02:56.659Z,1019.35
2019-03-30T08:03:56.674Z,1019.32
2019-03-30T08:04:56.636Z,1019.53
2019-03-30T08:05:56.630Z,1019.52
2019-03-30T08:06:56.621Z,1019.40
2019-03-30T08:07:56.614Z,1019.35
2019-03-30T08:08:56.626Z,1019.37
2019-03-30T08:09:56.585Z,1019.39
2019-03-30T08:10:56.570Z,1019.38
2019-03-30T08:11:56.559Z,1019.40
2019-03-30T08:12:56.556Z,1019.41
2019-03-30T08:13:56.574Z,1019.41
2019-03-30T08:14:56.520Z,1019.41
2019-03-30T08:15:56.505Z,1019.39
2019-03-30T08:16:56.511Z,1019.35
2019-03-30T08:17:56.490Z,1019.33
2019-03-30T08:18:56.498Z,1019.33
2019-03-30T08:19:56.468Z,1019.31
2019-03-30T08:20:56.460Z,1019.28
2019-03-30T08:21:56.435Z,1019.32
2019-03-30T08:22:56.445Z,1019.24
2019-03-30T08:23:56.447Z,1019.29
2019-03-30T08:24:56.416Z,1019.34
2019-03-30T08:25:56.406Z,1019.29
2019-03-30T08:26:56.414Z,1019.38
2019-03-30T08:27:56.393Z,1019.26
2019-03-30T08:28:56.382Z,1019.28
2019-03-30T08:29:56.362Z,1019.27
2019-03-30T08:30:56.348Z,1019.22
2019-03-30T08:31:56.355Z,1019.24
2019-03-30T08:32:56.338Z,1019.25
2019-03-30T08:33:56.380Z,1019.24
2019-03-30T08:34:56.323Z,1019.19
2019-03-30T08:35:56.292Z,1019.26
2019-03-30T08:36:59.178Z,1019.25
2019-03-30T08:37:56.278Z,1019.20
2019-03-30T08:38:56.299Z,1019.29
2019-03-30T08:39:56.243Z,1019.28
2019-03-30T08:40:56.237Z,1019.27
2019-03-30T08:41:56.223Z,1019.32
2019-03-30T08:42:56.222Z,1019.30
2019-03-30T08:43:56.240Z,1019.14
2019-03-30T08:44:56.192Z,1019.13
2019-03-30T08:45:56.177Z,1019.18
2019-03-30T08:46:56.164Z,1019.12
2019-03-30T08:47:56.181Z,1019.06
2019-03-30T08:48:56.184Z,1019.23
2019-03-30T08:49:56.173Z,1019.17
2019-03-30T08:50:56.119Z,1019.14
2019-03-30T08:51:56.111Z,1019.01
2019-03-30T08:52:56.105Z,1019.04
2019-03-30T08:53:56.125Z,1019.19
2019-03-30T08:54:56.075Z,1019.12
2019-03-30T08:55:56.075Z,1018.96
2019-03-30T08:56:56.057Z,1018.99
2019-03-30T08:57:56.053Z,1018.90
2019-03-30T08:58:56.071Z,1018.97
2019-03-30T08:59:56.049Z,1019.05
2019-03-30T09:00:56.027Z,1018.95
2019-03-30T09:01:55.998Z,1018.95
2019-03-30T09:02:55.989Z,1019.00
2019-03-30T09:03:55.978Z,1018.96
2019-03-30T09:04:55.986Z,1018.93
2019-03-30T09:05:55.956Z,1019.04
2019-03-30T09:06:55.953Z,1018.92
2019-03-30T09:07:55.949Z,1018.89
2019-03-30T09:08:55.931Z,1018.92
2019-03-30T09:09:55.935Z,1018.84
2019-03-30T09:10:55.899Z,1018.83
2019-03-30T09:11:55.883Z,1018.85
2019-03-30T09:12:55.873Z,1018.81
2019-03-30T09:13:55.868Z,1018.83
2019-03-30T09:14:55.874Z,1018.80
2019-03-30T09:15:55.918Z,1018.86
2019-03-30T09:16:55.851Z,1018.83
2019-03-30T09:17:55.827Z,1018.83
2019-03-30T09:18:55.813Z,1018.72
2019-03-30T09:19:55.822Z,1018.76
2019-03-30T09:20:55.793Z,1018.73
2019-03-30T09:21:55.802Z,1018.74
2019-03-30T09:22:55.774Z,1018.72
2019-03-30T09:24:08.975Z,1018.70
2019-03-30T09:24:56.764Z,1018.70
2019-03-30T09:25:55.754Z,1018.81
2019-03-30T09:26:55.723Z,1018.67
2019-03-30T09:27:55.712Z,1018.62
2019-03-30T09:28:55.702Z,1018.59
2019-03-30T09:29:55.715Z,1018.67
2019-03-30T09:30:55.700Z,1018.70
2019-03-30T09:31:55.723Z,1018.59
2019-03-30T09:32:55.650Z,1018.66
2019-03-30T09:33:55.641Z,1018.65
2019-03-30T09:34:55.641Z,1018.60
2019-03-30T09:35:55.625Z,1018.71
2019-03-30T09:36:55.727Z,1018.52
2019-03-30T09:37:55.627Z,1018.53
2019-03-30T09:38:55.604Z,1018.62
2019-03-30T09:39:55.602Z,1018.56
2019-03-30T09:40:55.573Z,1018.62
2019-03-30T09:41:55.557Z,1018.65
2019-03-30T09:42:55.555Z,1018.63
2019-03-30T09:43:55.550Z,1018.56
2019-03-30T09:44:55.533Z,1018.54
2019-03-30T09:45:55.509Z,1018.51
2019-03-30T09:46:55.506Z,1018.55
2019-03-30T09:47:55.489Z,1018.46
2019-03-30T09:48:55.474Z,1018.44
2019-03-30T09:49:55.494Z,1018.36
2019-03-30T09:50:55.459Z,1018.38
2019-03-30T09:51:55.440Z,1018.35
2019-03-30T09:52:55.537Z,1018.47
2019-03-30T09:53:55.430Z,1018.51
2019-03-30T09:54:55.422Z,1018.31
2019-03-30T09:55:55.409Z,1018.36
2019-03-30T09:56:55.393Z,1018.33
2019-03-30T09:57:55.383Z,1018.44
2019-03-30T09:58:55.362Z,1018.32
2019-03-30T09:59:55.378Z,1018.33
2019-03-30T10:00:55.341Z,1018.33
2019-03-30T10:01:55.329Z,1018.41
2019-03-30T10:02:55.324Z,1018.44
2019-03-30T10:03:55.303Z,1018.39
2019-03-30T10:04:55.367Z,1018.26
2019-03-30T10:05:55.301Z,1018.18
2019-03-30T10:06:55.281Z,1018.23
2019-03-30T10:07:55.263Z,1018.21
2019-03-30T10:08:55.246Z,1018.31
2019-03-30T10:09:55.262Z,1018.28
2019-03-30T10:10:55.255Z,1018.32
2019-03-30T10:11:55.242Z,1018.30
2019-03-30T10:12:55.218Z,1018.14
2019-03-30T10:13:55.201Z,1018.24
2019-03-30T10:14:55.228Z,1018.19
2019-03-30T10:15:55.182Z,1018.21
2019-03-30T10:16:55.177Z,1018.19
2019-03-30T10:17:55.150Z,1018.09
2019-03-30T10:18:55.147Z,1018.16
2019-03-30T10:20:04.209Z,1018.20
2019-03-30T10:20:56.127Z,1018.12
2019-03-30T10:21:55.121Z,1018.20
2019-03-30T10:22:55.112Z,1018.11
2019-03-30T10:23:55.177Z,1018.10
2019-03-30T10:24:58.275Z,1018.18
2019-03-30T10:25:55.074Z,1018.08
2019-03-30T10:26:55.054Z,1018.08
2019-03-30T10:27:55.086Z,1018.01
2019-03-30T10:28:55.043Z,1018.04
2019-03-30T10:29:55.043Z,1018.01
2019-03-30T10:30:55.017Z,1018.01
2019-03-30T10:31:55.015Z,1018.03
2019-03-30T10:32:54.996Z,1018.00
2019-03-30T10:33:54.994Z,1018.12
2019-03-30T10:34:54.998Z,1018.07
2019-03-30T10:35:54.956Z,1018.00
2019-03-30T10:36:54.951Z,1018.02
2019-03-30T10:37:54.930Z,1018.00
2019-03-30T10:38:54.929Z,1017.92
2019-03-30T10:39:54.971Z,1017.97
2019-03-30T10:40:54.901Z,1017.86
2019-03-30T10:41:54.897Z,1017.85
2019-03-30T10:42:54.882Z,1017.97
2019-03-30T10:43:54.870Z,1017.96
2019-03-30T10:44:54.868Z,1017.92
2019-03-30T10:45:54.870Z,1017.88
2019-03-30T10:46:54.829Z,1017.73
2019-03-30T10:47:54.815Z,1017.76
2019-03-30T10:48:54.821Z,1017.85
2019-03-30T10:49:54.829Z,1017.72
2019-03-30T10:50:54.864Z,1017.78
2019-03-30T10:51:54.773Z,1017.85
2019-03-30T10:52:54.776Z,1017.76
2019-03-30T10:53:54.758Z,1017.72
2019-03-30T10:54:54.755Z,1017.71
2019-03-30T10:55:54.763Z,1017.70
2019-03-30T10:56:54.722Z,1017.69
2019-03-30T10:57:54.716Z,1017.75
2019-03-30T10:58:54.699Z,1017.60
2019-03-30T10:59:54.693Z,1017.76
2019-03-30T11:00:54.702Z,1017.75
2019-03-30T11:01:54.678Z,1017.64
2019-03-30T11:02:54.651Z,1017.68
2019-03-30T11:03:54.650Z,1017.71
2019-03-30T11:04:54.632Z,1017.59
2019-03-30T11:05:54.639Z,1017.52
2019-03-30T11:06:54.610Z,1017.56
2019-03-30T11:07:54.645Z,1017.55
2019-03-30T11:08:54.592Z,1017.40
2019-03-30T11:09:54.651Z,1017.42
2019-03-30T11:10:54.604Z,1017.60
2019-03-30T11:11:54.563Z,1017.43
2019-03-30T11:12:54.558Z,1017.56
2019-03-30T11:13:54.547Z,1017.44
2019-03-30T11:14:54.521Z,1017.40
2019-03-30T11:15:54.522Z,1017.54
2019-03-30T11:16:54.495Z,1017.41
2019-03-30T11:17:54.491Z,1017.47
2019-03-30T11:18:54.477Z,1017.41
2019-03-30T11:19:54.465Z,1017.42
2019-03-30T11:20:54.476Z,1017.56
2019-03-30T11:21:54.442Z,1017.49
2019-03-30T11:22:54.425Z,1017.35
2019-03-30T11:23:54.422Z,1017.45
2019-03-30T11:25:06.713Z,1017.21
2019-03-30T11:25:55.411Z,1017.41
2019-03-30T11:26:54.383Z,1017.23
2019-03-30T11:27:54.375Z,1017.40
2019-03-30T11:28:54.378Z,1017.25
2019-03-30T11:29:54.360Z,1017.30
2019-03-30T11:30:54.377Z,1017.43
2019-03-30T11:31:54.329Z,1017.30
2019-03-30T11:32:54.318Z,1017.23
2019-03-30T11:33:54.316Z,1017.24
2019-03-30T11:34:54.305Z,1017.24
2019-03-30T11:35:54.319Z,1017.33
2019-03-30T11:36:54.275Z,1017.29
2019-03-30T11:37:54.261Z,1017.27
2019-03-30T11:38:54.254Z,1017.15
2019-03-30T11:39:54.241Z,1017.16
2019-03-30T11:40:54.244Z,1017.13
2019-03-30T11:41:54.211Z,1017.12
2019-03-30T11:42:54.200Z,1016.99
2019-03-30T11:43:54.201Z,1017.07
2019-03-30T11:44:54.184Z,1017.07
2019-03-30T11:45:54.192Z,1017.11
2019-03-30T11:46:54.173Z,1017.08
2019-03-30T11:47:54.156Z,1017.01
2019-03-30T11:48:54.135Z,1017.09
2019-03-30T11:49:54.148Z,1016.99
2019-03-30T11:50:54.183Z,1016.91
2019-03-30T11:51:54.115Z,1016.96
2019-03-30T11:52:54.105Z,1016.89
2019-03-30T11:53:54.078Z,1016.88
2019-03-30T11:54:54.075Z,1016.80
2019-03-30T11:55:54.082Z,1016.78
2019-03-30T11:56:54.054Z,1016.86
2019-03-30T11:57:54.051Z,1016.74
2019-03-30T11:58:54.024Z,1016.74
2019-03-30T11:59:54.032Z,1016.66
2019-03-30T12:00:54.023Z,1016.64
2019-03-30T12:01:53.994Z,1016.76
2019-03-30T12:02:53.982Z,1016.62
2019-03-30T12:03:53.979Z,1016.71
2019-03-30T12:04:53.988Z,1016.60